Time;durP1;ratioP1;P1;durP2;ratioP2;P2;SDS_P1;SDS_P2;PMS_P1;PMS_P2;Temp;Humidity;BMP_temperature;BMP_pressure;BME280_temperature;BME280_humidity;BME280_pressure;Samples;Min_cycle;Max_cycle;Signal;HPM_P1;HPM_P2
2021/12/21 00:01:18;;;;;;;12.50;4.67;;;0.30;99.90;;;;;;5095333;28;20027;-83
2021/12/21 00:03:44;;;;;;;16.00;5.47;;;0.30;99.90;;;;;;5095764;28;20019;-83
2021/12/21 00:06:09;;;;;;;12.27;4.70;;;0.30;99.90;;;;;;5094723;28;20053;-83
2021/12/21 00:08:37;;;;;;;15.27;5.00;;;0.30;99.90;;;;;;5113151;28;20035;-83
2021/12/21 00:11:02;;;;;;;12.53;4.63;;;0.20;99.90;;;;;;5114115;28;20012;-83
2021/12/21 00:16:14;;;;;;;13.37;4.23;;;0.20;99.90;;;;;;5113189;28;20019;-83
2021/12/21 00:21:34;;;;;;;10.87;4.63;;;0.20;99.90;;;;;;5109840;28;20050;-81
2021/12/21 00:24:09;;;;;;;10.37;4.97;;;0.20;99.90;;;;;;5095634;28;20031;-83
2021/12/21 00:26:35;;;;;;;26.47;10.40;;;0.20;99.90;;;;;;5113866;28;20034;-83
2021/12/21 00:29:02;;;;;;;12.13;5.43;;;0.10;99.90;;;;;;5096338;28;20045;-83
2021/12/21 00:31:34;;;;;;;13.10;4.57;;;0.10;99.90;;;;;;5094599;28;20031;-83
2021/12/21 00:34:00;;;;;;;10.07;4.95;;;0.10;99.90;;;;;;5082279;28;20025;-83
2021/12/21 00:36:28;;;;;;;10.23;4.93;;;0.10;99.90;;;;;;5075475;28;20031;-83
2021/12/21 00:38:56;;;;;;;11.17;4.53;;;0.10;99.90;;;;;;5074738;28;20024;-82
2021/12/21 00:41:22;;;;;;;12.00;4.80;;;0.10;99.90;;;;;;5075129;28;20016;-83
2021/12/21 00:43:48;;;;;;;10.90;3.87;;;0.10;99.90;;;;;;5075311;28;20582;-83
2021/12/21 00:46:15;;;;;;;19.47;4.93;;;0.10;99.90;;;;;;5093165;28;20035;-83
2021/12/21 00:48:48;;;;;;;16.23;4.67;;;0.10;99.90;;;;;;5075098;28;20025;-83
2021/12/21 00:51:15;;;;;;;8.87;4.40;;;0.10;99.90;;;;;;5075264;28;20115;-83
2021/12/21 00:53:41;;;;;;;11.80;4.80;;;0.10;99.90;;;;;;5075146;28;20078;-83
2021/12/21 00:56:07;;;;;;;13.60;4.67;;;0.10;99.90;;;;;;5075559;28;20063;-83
2021/12/21 00:58:32;;;;;;;10.83;4.10;;;0.00;99.90;;;;;;5075200;28;20047;-84
2021/12/21 01:01:03;;;;;;;12.83;4.50;;;0.00;99.90;;;;;;5075156;28;20461;-83
2021/12/21 01:03:29;;;;;;;9.73;4.10;;;0.00;99.90;;;;;;5101792;28;20076;-85
2021/12/21 01:06:22;;;;;;;12.40;4.50;;;0.00;99.90;;;;;;5095316;28;20028;-83
2021/12/21 01:09:05;;;;;;;8.87;4.13;;;0.00;99.90;;;;;;5111383;28;20028;-84
2021/12/21 01:11:36;;;;;;;11.77;4.40;;;0.00;99.90;;;;;;5112821;28;20023;-84
2021/12/21 01:16:38;;;;;;;13.07;4.30;;;0.00;99.90;;;;;;5113229;28;20023;-85
2021/12/21 01:19:16;;;;;;;7.67;3.93;;;0.00;99.90;;;;;;5104816;28;20032;-84
2021/12/21 01:21:56;;;;;;;14.53;4.67;;;0.00;99.90;;;;;;5077756;28;20523;-84
2021/12/21 01:27:08;;;;;;;11.93;4.57;;;0.00;99.90;;;;;;5096575;28;20043;-83
2021/12/21 01:32:22;;;;;;;14.47;4.70;;;0.00;99.90;;;;;;5117070;28;20032;-83
2021/12/21 01:37:22;;;;;;;11.30;4.80;;;-0.10;99.90;;;;;;5096761;28;20481;-83
2021/12/21 01:39:59;;;;;;;14.80;4.47;;;-0.10;99.90;;;;;;5078703;28;20114;-83
2021/12/21 01:50:26;;;;;;;16.20;5.07;;;-0.20;99.90;;;;;;5096597;28;20388;-83
2021/12/21 01:52:52;;;;;;;10.33;3.93;;;-0.20;99.90;;;;;;5096025;28;20024;-83
2021/12/21 01:55:18;;;;;;;11.13;4.43;;;-0.20;99.90;;;;;;5078590;28;20028;-83
2021/12/21 01:57:44;;;;;;;10.77;3.60;;;-0.30;99.90;;;;;;5078282;28;20055;-83
2021/12/21 02:00:10;;;;;;;11.63;3.90;;;-0.30;99.90;;;;;;5078186;28;20089;-83
2021/12/21 02:02:36;;;;;;;8.33;4.20;;;-0.30;99.90;;;;;;5080055;28;20105;-83
2021/12/21 02:05:02;;;;;;;13.30;4.07;;;-0.30;99.90;;;;;;5098934;28;20458;-83
2021/12/21 02:07:28;;;;;;;10.80;3.90;;;-0.30;99.90;;;;;;5098663;28;20452;-83
2021/12/21 02:09:54;;;;;;;9.43;3.90;;;-0.30;99.90;;;;;;5098814;28;20148;-83
2021/12/21 02:12:21;;;;;;;12.57;3.90;;;-0.40;99.90;;;;;;5098646;28;20066;-83
2021/12/21 02:14:55;;;;;;;12.23;3.77;;;-0.30;99.90;;;;;;5097821;28;20076;-84
2021/12/21 02:20:23;;;;;;;12.83;4.10;;;-0.40;99.90;;;;;;5095830;28;20031;-83
2021/12/21 02:23:01;;;;;;;11.90;3.70;;;-0.40;99.90;;;;;;5077138;28;20197;-83
2021/12/21 02:28:11;;;;;;;10.30;3.63;;;-0.40;99.90;;;;;;5095711;28;20024;-83
2021/12/21 02:30:41;;;;;;;13.33;4.30;;;-0.40;99.90;;;;;;5095127;28;20028;-84
2021/12/21 02:33:07;;;;;;;11.03;3.90;;;-0.50;99.90;;;;;;5083961;28;20028;-84
2021/12/21 02:35:33;;;;;;;8.20;3.37;;;-0.40;99.90;;;;;;5116132;28;20046;-84
2021/12/21 02:37:59;;;;;;;10.40;3.63;;;-0.50;99.90;;;;;;5115766;28;20020;-84
2021/12/21 02:40:25;;;;;;;10.90;3.90;;;-0.50;99.90;;;;;;5115888;28;20028;-83
2021/12/21 02:42:50;;;;;;;11.17;4.00;;;-0.50;99.90;;;;;;5097558;28;20027;-84
2021/12/21 02:45:16;;;;;;;8.17;4.23;;;-0.50;99.90;;;;;;5097358;28;20492;-83
2021/12/21 02:47:42;;;;;;;11.23;3.60;;;-0.50;99.90;;;;;;5097832;28;20027;-83
2021/12/21 02:50:08;;;;;;;7.73;3.63;;;-0.50;99.90;;;;;;5098130;28;20027;-82
2021/12/21 02:52:34;;;;;;;7.00;3.20;;;-0.50;99.90;;;;;;5097222;28;20063;-84
2021/12/21 02:55:01;;;;;;;11.03;4.00;;;-0.50;99.90;;;;;;5098173;28;20085;-83
2021/12/21 02:57:27;;;;;;;8.87;3.57;;;-0.60;99.90;;;;;;5097397;28;20464;-83
2021/12/21 02:59:53;;;;;;;9.20;3.47;;;-0.50;99.90;;;;;;5096612;28;20057;-84
2021/12/21 03:02:18;;;;;;;8.90;3.63;;;-0.60;99.90;;;;;;5097377;28;20042;-84
2021/12/21 03:04:45;;;;;;;10.00;3.60;;;-0.60;99.90;;;;;;5097029;28;20069;-84
2021/12/21 03:10:16;;;;;;;9.30;3.65;;;-0.60;99.90;;;;;;5033347;28;20021;-84
2021/12/21 03:15:30;;;;;;;6.63;3.30;;;-0.70;99.90;;;;;;5115360;28;20039;-83
2021/12/21 03:17:56;;;;;;;9.57;3.37;;;-0.70;99.90;;;;;;5115086;28;20023;-84
2021/12/21 03:20:23;;;;;;;7.97;3.00;;;-0.70;99.90;;;;;;5115311;28;20458;-84
2021/12/21 03:22:49;;;;;;;8.27;3.27;;;-0.70;99.90;;;;;;5096311;28;20039;-84
2021/12/21 03:25:15;;;;;;;7.83;3.10;;;-0.70;99.90;;;;;;5114805;28;20396;-83
2021/12/21 03:27:41;;;;;;;6.63;3.23;;;-0.70;99.90;;;;;;5114578;28;20024;-84
2021/12/21 03:30:12;;;;;;;8.20;3.30;;;-0.70;99.90;;;;;;5114821;28;20027;-83
2021/12/21 03:32:37;;;;;;;8.93;3.47;;;-0.70;99.90;;;;;;5096437;28;20043;-84
2021/12/21 03:35:04;;;;;;;8.77;3.47;;;-0.70;99.90;;;;;;5096935;28;20031;-83
2021/12/21 03:37:29;;;;;;;11.07;3.70;;;-0.80;99.90;;;;;;5051687;28;20486;-84
2021/12/21 03:39:55;;;;;;;8.83;3.57;;;-0.80;99.90;;;;;;5051755;28;20039;-83
2021/12/21 03:42:24;;;;;;;6.80;3.00;;;-0.80;99.90;;;;;;5034864;28;20087;-84
2021/12/21 03:44:49;;;;;;;10.77;3.20;;;-0.80;99.90;;;;;;5034483;28;20035;-84
2021/12/21 03:47:17;;;;;;;8.10;3.03;;;-0.80;99.90;;;;;;5035611;28;20115;-84
2021/12/21 03:52:15;;;;;;;10.13;3.27;;;-0.80;99.90;;;;;;5051778;28;20217;-84
2021/12/21 03:54:43;;;;;;;;;;;-0.90;99.90;;;;;;5035270;28;20057;-83
2021/12/21 03:57:09;;;;;;;9.77;2.87;;;-0.90;99.90;;;;;;5035503;28;19912;-83
2021/12/21 03:59:35;;;;;;;5.03;3.13;;;-0.90;99.90;;;;;;5034602;28;20033;-84
2021/12/21 04:02:01;;;;;;;7.57;3.17;;;-0.90;99.90;;;;;;5068297;28;20043;-86
2021/12/21 04:04:27;;;;;;;8.50;3.17;;;-0.90;99.90;;;;;;5068493;28;20075;-83
2021/12/21 04:06:53;;;;;;;8.73;3.13;;;-0.90;99.90;;;;;;5068225;28;20473;-83
2021/12/21 04:09:19;;;;;;;8.00;3.57;;;-0.90;99.90;;;;;;5087760;28;20056;-83
2021/12/21 04:11:45;;;;;;;7.40;3.33;;;-0.90;99.90;;;;;;5095906;28;20076;-83
2021/12/21 04:14:11;;;;;;;8.40;3.23;;;-1.00;99.90;;;;;;5113993;28;20051;-83
2021/12/21 04:16:37;;;;;;;8.90;3.73;;;-1.00;99.90;;;;;;5094246;28;20031;-85
2021/12/21 04:19:03;;;;;;;7.50;3.77;;;-0.90;99.90;;;;;;5095896;28;20044;-83
2021/12/21 04:21:29;;;;;;;9.97;3.23;;;-0.90;99.90;;;;;;5095750;28;20043;-83
2021/12/21 04:23:55;;;;;;;10.63;3.40;;;-0.90;99.90;;;;;;5095554;28;20038;-84
2021/12/21 04:26:20;;;;;;;14.27;3.60;;;-0.80;99.90;;;;;;5113870;28;20045;-83
2021/12/21 04:28:46;;;;;;;8.07;3.03;;;-0.90;99.90;;;;;;5095544;28;20053;-83
2021/12/21 04:31:12;;;;;;;11.60;3.33;;;-0.90;99.90;;;;;;5114385;28;20032;-83
2021/12/21 04:33:42;;;;;;;15.03;3.70;;;-0.90;99.90;;;;;;5085075;28;20028;-83
2021/12/21 04:36:09;;;;;;;11.97;3.73;;;-1.00;99.90;;;;;;5093665;28;20016;-83
2021/12/21 04:38:39;;;;;;;9.40;3.40;;;-1.00;99.90;;;;;;5075005;28;20028;-85
2021/12/21 04:41:12;;;;;;;11.27;3.60;;;-1.00;99.90;;;;;;5076289;28;20115;-82
2021/12/21 04:43:39;;;;;;;11.27;3.50;;;-0.90;99.90;;;;;;5075601;28;20028;-85
2021/12/21 04:46:05;;;;;;;9.17;4.10;;;-0.90;99.90;;;;;;5076258;28;20024;-82
2021/12/21 04:48:31;;;;;;;8.70;3.40;;;-1.00;99.90;;;;;;5075108;28;20020;-83
2021/12/21 04:50:57;;;;;;;8.53;3.20;;;-1.00;99.90;;;;;;5074994;28;20024;-83
2021/12/21 04:53:24;;;;;;;5.77;3.30;;;-1.00;99.90;;;;;;5074994;28;20032;-82
2021/12/21 04:55:50;;;;;;;10.47;4.20;;;-1.10;99.90;;;;;;5096008;28;20521;-83
2021/12/21 04:58:16;;;;;;;8.53;3.30;;;-1.10;99.90;;;;;;5079039;28;20103;-83
2021/12/21 05:00:42;;;;;;;9.53;3.50;;;-1.10;99.90;;;;;;5079218;28;20166;-83
2021/12/21 05:03:08;;;;;;;9.40;3.50;;;-1.10;99.90;;;;;;5079181;28;20085;-83
2021/12/21 05:05:34;;;;;;;11.10;3.60;;;-1.10;99.90;;;;;;5102669;28;20027;-82
2021/12/21 05:10:34;;;;;;;9.25;3.83;;;-1.10;99.90;;;;;;5117881;28;20027;-83
2021/12/21 05:12:59;;;;;;;7.23;3.33;;;-1.10;99.90;;;;;;5098576;28;20043;-83
2021/12/21 05:15:25;;;;;;;9.33;3.53;;;-1.20;99.90;;;;;;5117166;28;20027;-83
2021/12/21 05:17:51;;;;;;;9.67;3.33;;;-1.10;99.90;;;;;;5085147;28;20089;-83
2021/12/21 05:20:16;;;;;;;10.93;3.47;;;-1.10;99.90;;;;;;5077841;28;20051;-82
2021/12/21 05:22:42;;;;;;;8.60;3.90;;;-1.20;99.90;;;;;;5078306;28;20070;-83
2021/12/21 05:25:08;;;;;;;8.63;3.30;;;-1.20;99.90;;;;;;5078798;28;20028;-83
2021/12/21 05:27:33;;;;;;;8.60;3.30;;;-1.20;99.90;;;;;;5079137;28;20036;-83
2021/12/21 05:29:59;;;;;;;13.90;4.10;;;-1.20;99.90;;;;;;5095752;28;20029;-83
2021/12/21 05:32:25;;;;;;;13.20;3.50;;;-1.20;99.90;;;;;;5116981;28;20032;-83
2021/12/21 05:34:51;;;;;;;11.10;3.83;;;-1.20;99.90;;;;;;5098449;28;20077;-83
2021/12/21 05:37:16;;;;;;;6.07;3.10;;;-1.20;99.90;;;;;;5099085;28;20468;-82
2021/12/21 05:39:58;;;;;;;13.83;3.23;;;-1.20;99.90;;;;;;5116037;28;20047;-83
2021/12/21 05:42:24;;;;;;;11.68;3.88;;;-1.20;99.90;;;;;;5098406;28;20059;-83
2021/12/21 05:44:51;;;;;;;10.33;3.67;;;-1.30;99.90;;;;;;5098639;28;20042;-83
2021/12/21 05:47:17;;;;;;;8.73;3.20;;;-1.30;99.90;;;;;;5098793;28;20027;-83
2021/12/21 05:49:43;;;;;;;9.47;3.53;;;-1.20;99.90;;;;;;5097740;28;20035;-84
2021/12/21 05:52:09;;;;;;;8.27;3.20;;;-1.20;99.90;;;;;;5099014;28;20028;-83
2021/12/21 05:54:35;;;;;;;10.13;3.63;;;-1.20;99.90;;;;;;5116819;28;20106;-83
2021/12/21 05:57:02;;;;;;;7.73;3.50;;;-1.20;99.90;;;;;;5098040;28;20126;-82
2021/12/21 05:59:27;;;;;;;12.43;3.93;;;-1.20;99.90;;;;;;5098825;28;20023;-82
2021/12/21 06:01:53;;;;;;;8.37;3.80;;;-1.20;99.90;;;;;;5097737;28;20039;-83
2021/12/21 06:04:21;;;;;;;8.80;3.63;;;-1.20;99.90;;;;;;5097856;28;20423;-83
2021/12/21 06:06:47;;;;;;;9.27;3.23;;;-1.20;99.90;;;;;;5096961;28;20024;-83
2021/12/21 06:09:13;;;;;;;7.37;3.70;;;-1.10;99.90;;;;;;5098831;28;20030;-84
2021/12/21 06:11:47;;;;;;;7.90;3.60;;;-1.10;99.90;;;;;;5097210;28;20031;-83
2021/12/21 06:15:23;;;;;;;9.90;3.93;;;-1.10;99.90;;;;;;5098692;28;20020;-83
2021/12/21 06:25:36;;;;;;;12.13;4.47;;;-1.20;99.90;;;;;;5116450;28;20034;-84
2021/12/21 06:28:05;;;;;;;10.47;4.17;;;-1.20;99.90;;;;;;5097853;28;20069;-83
2021/12/21 06:30:31;;;;;;;12.60;4.03;;;-1.20;99.90;;;;;;5098527;28;20365;-84
2021/12/21 06:32:56;;;;;;;13.30;4.57;;;-1.20;99.90;;;;;;5092373;28;20035;-84
2021/12/21 06:35:22;;;;;;;12.90;4.03;;;-1.20;99.90;;;;;;5077797;28;20036;-83
2021/12/21 06:37:48;;;;;;;15.23;4.83;;;-1.30;99.90;;;;;;5110007;28;20026;-83
2021/12/21 06:40:14;;;;;;;10.77;4.27;;;-1.30;99.90;;;;;;5097426;28;20047;-83
2021/12/21 06:42:41;;;;;;;12.53;4.23;;;-1.30;99.90;;;;;;5097046;28;20053;-84
2021/12/21 06:45:15;;;;;;;7.87;3.90;;;-1.30;99.90;;;;;;5098165;28;20024;-83
2021/12/21 06:53:09;;;;;;;12.07;4.50;;;-1.30;99.90;;;;;;5115878;28;20040;-84
2021/12/21 06:55:36;;;;;;;10.77;4.53;;;-1.30;99.90;;;;;;5115572;28;20028;-83
2021/12/21 06:58:02;;;;;;;11.53;4.37;;;-1.30;99.90;;;;;;5097007;28;20035;-83
2021/12/21 07:00:28;;;;;;;12.23;3.93;;;-1.30;99.90;;;;;;5115441;28;20027;-83
2021/12/21 07:02:53;;;;;;;10.10;3.77;;;-1.40;99.90;;;;;;5110231;28;20396;-82
2021/12/21 07:05:19;;;;;;;11.33;4.57;;;-1.40;99.90;;;;;;5098842;28;20031;-84
2021/12/21 07:07:45;;;;;;;9.47;3.97;;;-1.40;99.90;;;;;;5080174;28;20024;-83
2021/12/21 07:10:20;;;;;;;9.40;4.50;;;-1.40;99.90;;;;;;5077467;28;20034;-83
2021/12/21 07:18:12;;;;;;;10.40;3.90;;;-1.50;99.90;;;;;;5094214;28;20073;-83
2021/12/21 07:20:38;;;;;;;14.18;4.28;;;-1.50;99.90;;;;;;5076288;28;20541;-83
2021/12/21 07:23:05;;;;;;;9.13;3.70;;;-1.50;99.90;;;;;;5076233;28;20039;-83
2021/12/21 07:25:31;;;;;;;10.83;4.10;;;-1.50;99.90;;;;;;5076812;28;20453;-83
2021/12/21 07:27:57;;;;;;;14.17;4.47;;;-1.50;99.90;;;;;;5076837;28;20036;-84
2021/12/21 07:30:23;;;;;;;11.07;4.63;;;-1.50;99.90;;;;;;5096933;28;20030;-83
2021/12/21 07:32:49;;;;;;;12.07;4.73;;;-1.60;99.90;;;;;;5095758;28;20122;-83
2021/12/21 07:35:16;;;;;;;13.13;4.33;;;-1.60;99.90;;;;;;5097274;28;20089;-83
2021/12/21 07:37:42;;;;;;;10.50;4.37;;;-1.60;99.90;;;;;;5096084;28;20020;-83
2021/12/21 07:40:09;;;;;;;15.37;4.37;;;-1.60;99.90;;;;;;5096287;28;20024;-83
2021/12/21 07:42:35;;;;;;;9.20;4.20;;;-1.50;99.90;;;;;;5096230;28;20035;-83
2021/12/21 07:45:00;;;;;;;11.67;5.07;;;-1.50;99.90;;;;;;5096528;28;20138;-84
2021/12/21 07:47:26;;;;;;;16.07;4.77;;;-1.50;99.90;;;;;;5096739;28;20094;-85
2021/12/21 07:49:52;;;;;;;13.03;4.23;;;-1.50;99.90;;;;;;5096556;28;20059;-84
2021/12/21 07:52:18;;;;;;;16.70;4.83;;;-1.50;99.90;;;;;;5096269;28;20039;-84
2021/12/21 07:54:44;;;;;;;13.00;4.80;;;-1.50;99.90;;;;;;5095714;28;20023;-85
2021/12/21 07:57:10;;;;;;;15.93;4.67;;;-1.50;99.90;;;;;;5096695;28;20028;-85
2021/12/21 07:59:38;;;;;;;20.47;5.53;;;-1.40;99.90;;;;;;5096636;28;20057;-85
2021/12/21 08:02:04;;;;;;;13.73;4.87;;;-1.40;99.90;;;;;;5113154;28;20122;-85
2021/12/21 08:04:30;;;;;;;17.33;5.33;;;-1.40;99.90;;;;;;5096365;28;20023;-85
2021/12/21 08:07:03;;;;;;;13.03;5.30;;;-1.30;99.90;;;;;;5085978;28;20031;-85
2021/12/21 08:09:38;;;;;;;11.60;4.77;;;-1.30;99.90;;;;;;5093913;28;20016;-85
2021/12/21 08:12:13;;;;;;;10.87;5.00;;;-1.30;99.90;;;;;;5075336;28;20034;-85
2021/12/21 08:14:39;;;;;;;14.20;4.83;;;-1.30;99.90;;;;;;5076026;28;20077;-85
2021/12/21 08:17:05;;;;;;;13.10;4.30;;;-1.20;99.90;;;;;;5075415;28;20024;-85
2021/12/21 08:19:30;;;;;;;10.03;4.70;;;-1.20;99.90;;;;;;5094090;28;20093;-84
2021/12/21 08:21:56;;;;;;;11.30;4.90;;;-1.10;99.90;;;;;;5074798;28;20500;-84
2021/12/21 08:24:21;;;;;;;10.37;4.73;;;-1.10;99.90;;;;;;5093452;28;20028;-85
2021/12/21 08:26:47;;;;;;;9.73;4.80;;;-1.10;99.90;;;;;;5075657;28;20021;-85
2021/12/21 08:29:13;;;;;;;12.30;4.60;;;-1.00;99.90;;;;;;5086814;28;20023;-85
2021/12/21 08:31:38;;;;;;;7.70;4.80;;;-1.00;99.90;;;;;;5113738;28;20043;-85
2021/12/21 08:34:04;;;;;;;8.43;4.00;;;-1.00;99.90;;;;;;5088704;28;20028;-84
2021/12/21 08:36:31;;;;;;;7.70;4.20;;;-0.90;99.90;;;;;;5075362;28;20051;-84
2021/12/21 08:38:57;;;;;;;11.77;5.03;;;-0.90;99.90;;;;;;5074965;28;20036;-84
2021/12/21 08:41:23;;;;;;;14.10;4.70;;;-0.80;99.90;;;;;;5075841;28;20031;-84
2021/12/21 08:43:51;;;;;;;13.30;5.20;;;-0.80;99.90;;;;;;5092506;28;20077;-85
2021/12/21 08:46:16;;;;;;;12.27;3.97;;;-0.80;99.90;;;;;;5075525;28;20039;-84
2021/12/21 08:48:42;;;;;;;10.43;4.30;;;-0.70;99.90;;;;;;5075799;28;20024;-84
2021/12/21 08:51:08;;;;;;;9.47;4.40;;;-0.70;99.90;;;;;;5076171;28;20026;-84
2021/12/21 08:53:34;;;;;;;9.50;4.30;;;-0.70;99.90;;;;;;5075111;28;20028;-84
2021/12/21 08:56:00;;;;;;;9.97;4.80;;;-0.70;99.90;;;;;;5092794;28;20077;-84
2021/12/21 08:58:26;;;;;;;15.23;4.90;;;-0.70;99.90;;;;;;5075650;28;20021;-84
2021/12/21 09:00:53;;;;;;;12.03;4.80;;;-0.70;99.90;;;;;;5074991;28;20032;-84
2021/12/21 09:03:20;;;;;;;13.73;4.80;;;-0.60;99.90;;;;;;5074608;28;20036;-84
2021/12/21 09:05:45;;;;;;;10.97;4.80;;;-0.60;99.90;;;;;;5100271;28;20019;-84
2021/12/21 09:08:11;;;;;;;11.43;4.90;;;-0.60;99.90;;;;;;5095441;28;20501;-84
2021/12/21 09:10:39;;;;;;;10.67;4.43;;;-0.60;99.90;;;;;;5095647;28;20123;-83
2021/12/21 09:13:05;;;;;;;10.43;4.47;;;-0.50;99.90;;;;;;5095259;28;20335;-83
2021/12/21 09:15:33;;;;;;;8.90;4.57;;;-0.50;99.90;;;;;;5095932;28;20451;-84
2021/12/21 09:17:58;;;;;;;10.70;4.80;;;-0.50;99.90;;;;;;5112376;28;20545;-85
2021/12/21 09:20:27;;;;;;;12.80;5.00;;;-0.40;99.90;;;;;;5094557;28;20047;-84
2021/12/21 09:22:53;;;;;;;11.20;4.67;;;-0.40;99.90;;;;;;5091583;28;20156;-85
2021/12/21 09:25:20;;;;;;;9.33;5.07;;;-0.40;99.90;;;;;;5094317;28;20028;-85
2021/12/21 09:27:45;;;;;;;14.27;5.03;;;-0.30;99.90;;;;;;5112271;28;20063;-84
2021/12/21 09:30:15;;;;;;;12.37;4.83;;;-0.30;99.90;;;;;;5094843;28;20027;-84
2021/12/21 09:32:42;;;;;;;12.00;4.80;;;-0.30;99.90;;;;;;5093894;28;20116;-84
2021/12/21 09:35:08;;;;;;;11.80;5.10;;;-0.30;99.90;;;;;;5093721;28;20028;-83
2021/12/21 09:37:34;;;;;;;15.83;4.90;;;-0.20;99.90;;;;;;5094171;28;20024;-80
2021/12/21 09:40:00;;;;;;;12.07;5.07;;;-0.20;99.90;;;;;;5112629;28;20113;-80
2021/12/21 09:42:31;;;;;;;10.53;5.10;;;-0.20;99.90;;;;;;5097865;28;20036;-81
2021/12/21 09:44:58;;;;;;;12.77;4.90;;;-0.10;99.90;;;;;;5095790;28;20102;-82
2021/12/21 09:47:26;;;;;;;12.53;5.00;;;0.00;99.90;;;;;;5098352;28;20034;-83
2021/12/21 09:49:52;;;;;;;14.83;5.37;;;0.00;99.90;;;;;;5098501;28;20028;-84
2021/12/21 09:52:20;;;;;;;8.77;4.87;;;0.00;99.90;;;;;;5116086;28;20055;-84
2021/12/21 09:54:46;;;;;;;11.57;4.90;;;0.10;99.90;;;;;;5098052;28;20024;-82
2021/12/21 09:57:16;;;;;;;10.27;4.87;;;0.10;99.90;;;;;;5098547;28;20028;-83
2021/12/21 09:59:42;;;;;;;13.37;5.13;;;0.10;99.90;;;;;;5097705;28;20024;-82
2021/12/21 10:02:08;;;;;;;8.63;4.90;;;0.20;99.90;;;;;;5115308;28;20058;-82
2021/12/21 10:04:58;;;;;;;12.07;5.17;;;0.20;99.90;;;;;;5080151;28;20032;-82
2021/12/21 10:07:26;;;;;;;12.80;5.37;;;0.30;99.90;;;;;;5116784;28;20076;-83
2021/12/21 10:10:12;;;;;;;9.10;4.97;;;0.40;99.90;;;;;;5097818;28;20483;-83
2021/12/21 10:12:43;;;;;;;9.40;5.07;;;0.40;99.90;;;;;;5097716;28;20038;-83
2021/12/21 10:15:15;;;;;;;12.27;4.85;;;0.50;99.90;;;;;;5080023;28;20080;-83
2021/12/21 10:17:57;;;;;;;;;;;0.50;99.90;;;;;;5080826;28;20418;-82
2021/12/21 10:20:33;;;;;;;9.57;4.03;;;0.60;99.90;;;;;;5097562;28;19970;-82
2021/12/21 10:22:59;;;;;;;12.93;4.90;;;0.60;99.90;;;;;;5096937;28;20062;-83
2021/12/21 10:25:27;;;;;;;12.10;4.40;;;0.60;99.90;;;;;;5085961;28;20028;-83
2021/12/21 10:27:52;;;;;;;8.97;5.10;;;0.70;99.90;;;;;;5077941;28;20053;-83
2021/12/21 10:30:18;;;;;;;11.17;4.50;;;0.70;99.90;;;;;;5115428;28;20019;-83
2021/12/21 10:32:54;;;;;;;9.13;4.67;;;0.80;99.90;;;;;;5094619;28;20028;-82
2021/12/21 10:35:30;;;;;;;12.13;4.83;;;0.80;99.90;;;;;;5095657;28;20027;-83
2021/12/21 10:37:56;;;;;;;9.37;4.53;;;0.80;99.90;;;;;;5077074;28;20083;-83
2021/12/21 10:40:26;;;;;;;10.07;4.60;;;0.90;99.90;;;;;;5077550;28;20028;-82
2021/12/21 10:43:04;;;;;;;12.33;4.37;;;1.00;99.90;;;;;;5076453;28;20042;-82
2021/12/21 10:45:32;;;;;;;10.33;4.57;;;1.00;99.90;;;;;;5076947;28;20024;-82
2021/12/21 10:47:59;;;;;;;8.50;3.87;;;1.10;99.90;;;;;;5077053;28;20024;-83
2021/12/21 10:50:27;;;;;;;8.90;4.43;;;1.10;99.90;;;;;;5077730;28;20388;-83
2021/12/21 10:52:59;;;;;;;8.93;4.33;;;1.20;99.90;;;;;;5076034;28;20027;-81
2021/12/21 10:55:31;;;;;;;13.57;4.20;;;1.30;99.90;;;;;;5076941;28;20047;-81
2021/12/21 10:58:01;;;;;;;12.80;4.47;;;1.30;99.90;;;;;;5076415;28;20062;-79
2021/12/21 11:00:27;;;;;;;7.90;4.07;;;1.40;99.90;;;;;;5094497;28;20066;-83
2021/12/21 11:02:54;;;;;;;11.67;4.47;;;1.40;99.90;;;;;;5076305;28;20040;-84
2021/12/21 11:05:20;;;;;;;7.63;4.13;;;1.40;99.90;;;;;;5079904;28;20049;-83
2021/12/21 11:07:52;;;;;;;8.97;4.10;;;1.50;99.90;;;;;;5097394;28;20028;-83
2021/12/21 11:10:26;;;;;;;9.55;4.65;;;1.50;99.90;;;;;;5097683;28;20064;-83
2021/12/21 11:13:04;;;;;;;6.30;3.70;;;1.60;99.90;;;;;;5079924;28;20082;-83
2021/12/21 11:15:53;;;;;;;6.03;3.37;;;1.60;99.90;;;;;;5095299;28;20532;-82
2021/12/21 11:18:20;;;;;;;7.97;4.10;;;1.60;99.90;;;;;;5097532;28;20028;-84
2021/12/21 11:20:52;;;;;;;7.23;3.67;;;1.70;99.90;;;;;;5114887;28;20059;-84
2021/12/21 11:23:20;;;;;;;12.25;3.75;;;1.70;99.90;;;;;;5096646;28;20027;-83
2021/12/21 11:25:48;;;;;;;9.03;4.33;;;1.70;99.90;;;;;;5096525;28;20085;-84
2021/12/21 11:28:17;;;;;;;7.63;4.17;;;1.70;99.90;;;;;;5097122;28;20031;-83
2021/12/21 11:30:43;;;;;;;8.80;4.57;;;1.70;99.90;;;;;;5114949;28;20031;-83
2021/12/21 11:33:11;;;;;;;9.67;4.03;;;1.80;99.90;;;;;;5096002;28;20055;-83
2021/12/21 11:38:08;;;;;;;7.40;3.90;;;1.90;99.90;;;;;;5114327;28;20020;-84
2021/12/21 11:40:44;;;;;;;8.50;4.13;;;1.90;99.90;;;;;;5096553;28;20531;-83
2021/12/21 11:43:32;;;;;;;6.83;3.80;;;2.00;99.90;;;;;;5095663;28;20092;-83
2021/12/21 11:45:59;;;;;;;7.53;3.63;;;2.10;99.90;;;;;;5095631;28;20081;-84
2021/12/21 11:48:54;;;;;;;5.57;3.27;;;2.20;99.90;;;;;;5097079;28;20123;-84
2021/12/21 11:51:24;;;;;;;6.63;2.90;;;2.20;99.90;;;;;;5078690;28;20038;-83
2021/12/21 11:53:50;;;;;;;7.73;3.60;;;2.30;99.90;;;;;;5096549;28;20038;-82
2021/12/21 11:56:21;;;;;;;7.50;3.40;;;2.30;99.90;;;;;;5095821;28;20023;-83
2021/12/21 11:58:51;;;;;;;6.17;3.00;;;2.40;99.90;;;;;;5096213;28;20084;-82
2021/12/21 12:01:26;;;;;;;7.30;3.90;;;2.50;99.90;;;;;;5114521;28;20317;-82
2021/12/21 12:04:05;;;;;;;10.00;3.50;;;2.60;99.90;;;;;;5113080;28;20074;-83
2021/12/21 12:06:53;;;;;;;5.17;3.27;;;2.70;99.70;;;;;;5113585;28;20028;-82
2021/12/21 12:09:37;;;;;;;9.83;3.20;;;3.00;98.70;;;;;;5096598;28;20034;-83
2021/12/21 12:12:14;;;;;;;7.83;3.63;;;3.20;97.80;;;;;;5114264;28;20024;-83
2021/12/21 12:14:42;;;;;;;8.07;3.43;;;3.40;97.70;;;;;;5083385;28;20032;-83
2021/12/21 12:17:22;;;;;;;6.10;2.93;;;3.50;96.90;;;;;;5075180;28;20024;-84
2021/12/21 12:20:07;;;;;;;6.37;3.10;;;3.70;96.90;;;;;;5075903;28;20460;-84
2021/12/21 12:22:36;;;;;;;6.17;2.80;;;4.00;96.20;;;;;;5055705;28;20040;-82
2021/12/21 12:25:06;;;;;;;7.07;2.90;;;4.20;95.80;;;;;;5073258;28;20076;-84
2021/12/21 12:27:31;;;;;;;6.73;2.90;;;4.40;95.30;;;;;;5055533;28;20374;-83
2021/12/21 12:30:07;;;;;;;4.20;2.50;;;4.30;94.70;;;;;;5072002;28;20031;-83
2021/12/21 12:32:36;;;;;;;6.50;2.57;;;4.20;94.10;;;;;;5074492;28;20127;-84
2021/12/21 12:35:08;;;;;;;7.47;2.70;;;4.10;94.90;;;;;;5055248;28;20100;-83
2021/12/21 12:37:51;;;;;;;5.90;2.55;;;4.00;95.10;;;;;;5055689;28;20024;-83
2021/12/21 12:40:18;;;;;;;5.43;2.77;;;3.90;95.60;;;;;;5055358;28;20024;-84
2021/12/21 12:42:59;;;;;;;6.90;2.67;;;4.00;96.00;;;;;;5055726;28;20096;-83
2021/12/21 12:45:34;;;;;;;5.50;2.73;;;3.90;95.50;;;;;;5074104;28;20123;-82
2021/12/21 12:48:00;;;;;;;6.13;2.30;;;4.00;95.60;;;;;;5074760;28;20035;-84
2021/12/21 12:50:28;;;;;;;10.07;2.87;;;4.10;95.40;;;;;;5093525;28;20032;-84
2021/12/21 12:53:03;;;;;;;3.93;2.20;;;4.10;95.30;;;;;;5075533;28;20088;-84
2021/12/21 12:55:40;;;;;;;4.63;2.67;;;4.10;95.30;;;;;;5075562;28;20043;-84
2021/12/21 12:58:20;;;;;;;7.93;2.40;;;4.20;95.30;;;;;;5074826;28;20024;-84
2021/12/21 13:01:19;;;;;;;5.73;3.17;;;4.20;95.10;;;;;;5075713;28;20028;-85
2021/12/21 13:03:45;;;;;;;7.10;2.17;;;4.40;94.30;;;;;;5075487;28;20040;-85
2021/12/21 13:06:14;;;;;;;5.73;2.27;;;4.60;94.40;;;;;;5064114;28;20097;-85
2021/12/21 13:08:42;;;;;;;6.73;2.90;;;4.80;94.10;;;;;;5073334;28;20518;-84
2021/12/21 13:11:09;;;;;;;4.60;2.50;;;4.80;93.60;;;;;;5056155;28;20024;-83
2021/12/21 13:13:38;;;;;;;4.93;2.07;;;4.90;93.70;;;;;;5076161;28;20081;-83
2021/12/21 13:16:09;;;;;;;5.73;2.37;;;4.90;93.60;;;;;;5094726;28;20040;-83
2021/12/21 13:18:43;;;;;;;5.63;2.43;;;4.90;93.30;;;;;;5097434;28;20473;-83
2021/12/21 13:21:25;;;;;;;5.90;2.27;;;4.90;93.30;;;;;;5084194;28;20052;-82
2021/12/21 13:24:09;;;;;;;6.13;2.67;;;4.80;92.20;;;;;;5096238;28;20127;-82
2021/12/21 13:26:37;;;;;;;5.97;2.30;;;4.70;92.60;;;;;;5096305;28;20032;-82
2021/12/21 13:29:05;;;;;;;4.63;2.20;;;4.70;93.30;;;;;;5095417;28;20031;-82
2021/12/21 13:31:31;;;;;;;7.27;2.63;;;4.70;93.10;;;;;;5095627;28;20024;-82
2021/12/21 13:34:00;;;;;;;4.93;2.70;;;4.80;93.10;;;;;;5095338;28;20477;-82
2021/12/21 13:36:35;;;;;;;4.47;2.23;;;4.90;93.10;;;;;;5095311;28;20028;-82
2021/12/21 13:39:22;;;;;;;6.43;2.47;;;5.00;92.30;;;;;;5095219;28;20024;-82
2021/12/21 13:42:00;;;;;;;6.97;2.50;;;5.10;92.20;;;;;;5078820;28;20141;-84
2021/12/21 13:44:31;;;;;;;5.13;2.30;;;5.30;91.20;;;;;;5086472;28;20109;-83
2021/12/21 13:47:00;;;;;;;3.13;1.98;;;5.40;91.50;;;;;;5096391;28;20031;-82
2021/12/21 13:49:26;;;;;;;4.47;2.33;;;5.50;91.20;;;;;;5074615;28;20037;-81
2021/12/21 13:51:55;;;;;;;4.40;2.30;;;5.40;91.40;;;;;;5074763;28;20052;-82
2021/12/21 13:54:22;;;;;;;3.27;2.10;;;5.40;91.60;;;;;;5076698;28;20024;-83
2021/12/21 13:56:49;;;;;;;6.70;2.60;;;5.40;91.00;;;;;;5074939;28;20025;-82